Time;durP1;ratioP1;P1;durP2;ratioP2;P2;SDS_P1;SDS_P2;PMS_P1;PMS_P2;Temp;Humidity;BMP_temperature;BMP_pressure;BME280_temperature;BME280_humidity;BME280_pressure;Samples;Min_cycle;Max_cycle;Signal;HPM_P1;HPM_P2
2022/01/06 00:01:32;;;;;;;1.60;1.20;;;;;;;3.77;55.25;98644.31;4931433;29;20618;-78
2022/01/06 00:03:59;;;;;;;2.47;1.43;;;;;;;3.86;55.04;98657.19;4931747;29;20234;-78
2022/01/06 00:06:37;;;;;;;2.53;1.23;;;;;;;3.78;54.79;98625.53;4931031;29;20226;-79
2022/01/06 00:09:06;;;;;;;3.83;1.40;;;;;;;3.76;55.29;98640.03;4941373;23;20196;-78
2022/01/06 00:11:34;;;;;;;2.80;1.60;;;;;;;3.84;55.04;98653.06;4936727;29;20221;-78
2022/01/06 00:17:18;;;;;;;1.97;1.30;;;;;;;3.64;55.38;98653.00;4918942;23;20290;-81
2022/01/06 00:24:58;;;;;;;3.47;1.47;;;;;;;3.80;54.55;98660.63;4930482;29;20221;-78
2022/01/06 00:27:30;;;;;;;2.60;1.17;;;;;;;3.78;54.65;98664.50;4947365;23;20590;-78
2022/01/06 00:29:58;;;;;;;1.53;1.10;;;;;;;3.67;55.18;98652.63;4942965;23;20229;-78
2022/01/06 00:32:31;;;;;;;3.53;1.47;;;;;;;3.79;54.87;98656.31;4918511;29;20224;-79
2022/01/06 00:35:00;;;;;;;1.67;1.07;;;;;;;3.87;54.65;98650.84;4972029;23;20240;-79
2022/01/06 00:37:37;;;;;;;2.83;1.47;;;;;;;3.64;55.52;98644.28;4954344;29;20212;-79
2022/01/06 00:40:05;;;;;;;2.73;1.43;;;;;;;3.76;55.36;98645.31;4947314;23;20220;-78
2022/01/06 00:42:32;;;;;;;2.33;1.30;;;;;;;3.77;55.39;98639.84;4951879;29;20232;-79
2022/01/06 00:45:01;;;;;;;3.40;1.30;;;;;;;3.76;55.33;98650.63;4951567;29;20232;-78
2022/01/06 00:47:41;;;;;;;2.90;1.20;;;;;;;3.69;55.41;98642.63;4967980;29;20255;-78
2022/01/06 00:50:08;;;;;;;1.83;1.30;;;;;;;3.77;55.36;98662.84;4969048;29;20216;-78
2022/01/06 00:52:35;;;;;;;1.57;1.10;;;;;;;3.73;55.38;98661.63;4969081;29;20233;-78
2022/01/06 00:55:10;;;;;;;2.27;1.40;;;;;;;3.63;55.52;98658.53;4967834;29;20224;-79
2022/01/06 00:57:38;;;;;;;3.03;1.33;;;;;;;3.77;55.72;98671.63;4936887;29;20197;-78
2022/01/06 01:00:15;;;;;;;4.53;1.63;;;;;;;3.52;56.05;98658.09;4968408;29;20224;-78
2022/01/06 01:02:47;;;;;;;3.20;1.43;;;;;;;3.63;55.87;98646.09;4968513;29;20232;-78
2022/01/06 01:05:15;;;;;;;2.17;1.10;;;;;;;3.63;55.78;98646.09;4968367;29;20558;-79
2022/01/06 01:07:42;;;;;;;2.50;1.40;;;;;;;3.64;55.51;98645.06;4968526;29;20217;-79
2022/01/06 01:10:24;;;;;;;2.40;1.27;;;;;;;3.68;55.84;98656.09;4947264;23;20228;-78
2022/01/06 01:12:51;;;;;;;3.40;1.30;;;;;;;3.61;55.69;98642.00;4944974;23;20229;-79
2022/01/06 01:15:23;;;;;;;2.23;1.07;;;;;;;3.73;55.40;98664.28;4949568;29;20426;-78
2022/01/06 01:17:54;;;;;;;2.50;1.30;;;;;;;3.74;55.80;98665.88;4933453;29;20235;-79
2022/01/06 01:20:21;;;;;;;2.10;1.30;;;;;;;3.76;55.27;98658.56;4932741;29;20229;-78
2022/01/06 01:22:49;;;;;;;3.23;1.47;;;;;;;3.56;55.89;98663.78;4950361;29;20213;-79
2022/01/06 01:25:30;;;;;;;2.87;1.30;;;;;;;3.73;55.67;98659.81;4932714;29;20328;-78
2022/01/06 01:27:58;;;;;;;3.77;1.40;;;;;;;3.61;56.25;98645.47;4950630;29;20241;-78
2022/01/06 01:30:31;;;;;;;2.87;1.30;;;;;;;3.66;56.19;98656.28;4949893;29;20257;-78
2022/01/06 01:33:16;;;;;;;2.77;1.30;;;;;;;3.63;56.67;98653.22;4966269;23;20236;-79
2022/01/06 01:35:43;;;;;;;2.27;1.30;;;;;;;3.64;56.54;98649.56;4952486;29;20244;-78
2022/01/06 01:38:10;;;;;;;3.73;1.30;;;;;;;3.58;56.46;98658.31;4936511;29;20205;-78
2022/01/06 01:40:38;;;;;;;2.33;1.27;;;;;;;3.61;56.35;98679.91;4975030;23;20227;-79
2022/01/06 01:43:06;;;;;;;5.53;1.60;;;;;;;3.51;56.92;98650.31;4933915;29;20288;-79
2022/01/06 01:45:44;;;;;;;1.77;1.30;;;;;;;3.55;57.03;98648.91;4938555;23;20229;-78
2022/01/06 01:48:25;;;;;;;2.70;1.50;;;;;;;3.62;57.11;98648.94;4934453;29;20301;-79
2022/01/06 01:50:53;;;;;;;2.77;1.27;;;;;;;3.60;56.81;98661.56;4917580;29;20233;-78
2022/01/06 01:53:19;;;;;;;2.90;1.40;;;;;;;3.58;56.73;98660.97;4948636;29;20197;-78
2022/01/06 01:55:52;;;;;;;3.20;1.40;;;;;;;3.57;57.10;98677.84;4949624;29;20240;-78
2022/01/06 01:58:21;;;;;;;2.73;1.20;;;;;;;3.51;57.59;98682.09;4949804;29;20217;-78
2022/01/06 02:00:49;;;;;;;2.83;1.50;;;;;;;3.50;57.79;98669.88;4949017;29;20540;-78
2022/01/06 02:03:16;;;;;;;4.07;1.57;;;;;;;3.53;57.44;98680.09;4949261;29;20221;-78
2022/01/06 02:05:44;;;;;;;1.83;1.20;;;;;;;3.49;57.77;98682.31;4948053;29;20604;-78
2022/01/06 02:08:15;;;;;;;2.93;1.67;;;;;;;3.57;57.98;98685.81;4957390;23;20288;-79
2022/01/06 02:10:51;;;;;;;3.57;1.50;;;;;;;3.67;57.42;98673.00;4952417;23;20252;-79
2022/01/06 02:13:18;;;;;;;2.37;1.40;;;;;;;3.65;57.66;98678.50;4920973;23;20233;-79
2022/01/06 02:15:45;;;;;;;2.20;1.10;;;;;;;3.64;58.07;98671.56;4896491;29;20234;-78
2022/01/06 02:18:14;;;;;;;2.60;1.33;;;;;;;3.59;57.68;98670.53;4913938;29;20313;-78
2022/01/06 02:20:41;;;;;;;2.90;1.37;;;;;;;3.59;57.59;98662.59;4897931;29;20230;-78
2022/01/06 02:23:23;;;;;;;3.07;1.63;;;;;;;3.50;58.08;98665.41;4914403;29;20269;-78
2022/01/06 02:25:52;;;;;;;1.97;1.27;;;;;;;3.42;58.04;98665.56;4930707;29;20289;-78
2022/01/06 02:28:22;;;;;;;2.37;1.50;;;;;;;3.63;57.95;98683.19;4911805;29;20226;-79
2022/01/06 02:30:58;;;;;;;2.73;1.47;;;;;;;3.57;57.75;98677.84;4930165;29;20192;-78
2022/01/06 02:33:29;;;;;;;1.50;1.13;;;;;;;3.62;58.48;98686.84;4929830;29;20238;-78
2022/01/06 02:36:00;;;;;;;5.07;1.40;;;;;;;3.55;58.10;98693.94;4912929;29;20230;-78
2022/01/06 02:38:27;;;;;;;2.60;1.30;;;;;;;3.65;57.94;98707.63;4914401;29;20236;-78
2022/01/06 02:41:13;;;;;;;4.30;1.40;;;;;;;3.59;58.04;98697.03;4915411;29;20242;-78
2022/01/06 02:43:40;;;;;;;4.27;1.27;;;;;;;3.55;58.56;98708.00;4930229;29;20229;-78
2022/01/06 02:46:09;;;;;;;3.13;1.33;;;;;;;3.59;58.58;98702.31;4898835;29;20294;-78
2022/01/06 02:48:38;;;;;;;2.17;1.30;;;;;;;3.57;58.70;98710.47;4930272;29;20717;-79
2022/01/06 02:51:05;;;;;;;3.07;1.50;;;;;;;3.66;58.84;98724.34;4930192;23;20225;-78
2022/01/06 02:53:32;;;;;;;3.87;1.73;;;;;;;3.61;58.80;98717.00;4947530;29;20224;-78
2022/01/06 02:56:00;;;;;;;2.70;1.47;;;;;;;3.64;58.71;98729.03;5040162;23;20225;-78
2022/01/06 02:58:45;;;;;;;4.00;1.60;;;;;;;3.65;58.81;98736.78;4940944;29;20189;-78
2022/01/06 03:01:20;;;;;;;2.57;1.27;;;;;;;3.60;58.75;98739.19;4971238;23;20247;-79
2022/01/06 03:03:48;;;;;;;2.30;1.10;;;;;;;3.66;58.56;98732.28;4954437;29;20212;-78
2022/01/06 03:06:23;;;;;;;3.07;1.43;;;;;;;3.64;58.88;98721.88;4971419;29;20671;-78
2022/01/06 03:08:53;;;;;;;3.93;1.43;;;;;;;3.65;58.76;98743.91;4955346;29;20219;-79
2022/01/06 03:11:25;;;;;;;2.50;1.50;;;;;;;3.70;58.69;98733.53;4954768;29;20212;-79
2022/01/06 03:14:08;;;;;;;3.03;1.23;;;;;;;3.73;58.61;98733.16;4954388;29;20267;-78
2022/01/06 03:16:36;;;;;;;3.13;1.30;;;;;;;3.67;58.61;98729.47;4946391;29;20236;-79
2022/01/06 03:19:06;;;;;;;2.87;1.40;;;;;;;3.67;58.60;98723.34;4971244;29;20161;-78
2022/01/06 03:21:53;;;;;;;2.23;1.10;;;;;;;3.71;58.53;98722.75;4971213;29;20235;-78
2022/01/06 03:24:20;;;;;;;3.30;1.70;;;;;;;3.73;58.64;98738.47;4954003;29;20601;-79
2022/01/06 03:26:48;;;;;;;2.60;1.40;;;;;;;3.70;59.03;98734.34;4954791;23;20252;-78
2022/01/06 03:29:15;;;;;;;2.07;1.40;;;;;;;3.73;58.46;98741.94;4948894;23;20249;-79
2022/01/06 03:31:43;;;;;;;3.23;1.50;;;;;;;3.76;57.95;98748.66;4948004;23;20229;-78
2022/01/06 03:34:10;;;;;;;2.83;1.50;;;;;;;3.73;58.43;98744.56;4952220;29;20189;-77
2022/01/06 03:36:37;;;;;;;2.43;1.20;;;;;;;3.74;58.53;98748.00;4952519;29;20229;-78
2022/01/06 03:39:24;;;;;;;2.87;1.53;;;;;;;3.87;58.21;98750.75;4929625;23;20241;-78
2022/01/06 03:41:51;;;;;;;3.10;1.13;;;;;;;3.82;58.49;98746.03;4901530;29;20218;-78
2022/01/06 03:44:24;;;;;;;3.97;1.40;;;;;;;3.76;58.66;98733.56;4943779;23;20302;-78
2022/01/06 03:46:55;;;;;;;3.97;1.50;;;;;;;3.76;58.97;98757.41;4954719;29;20192;-78
2022/01/06 03:49:23;;;;;;;3.23;1.50;;;;;;;3.73;59.11;98757.00;4971444;29;20239;-78
2022/01/06 03:52:10;;;;;;;3.97;1.37;;;;;;;3.80;59.10;98763.13;4931042;23;20286;-78
2022/01/06 03:54:39;;;;;;;2.67;1.40;;;;;;;3.70;59.18;98766.13;4914150;29;20231;-79
2022/01/06 03:57:11;;;;;;;3.87;1.37;;;;;;;3.79;58.53;98762.31;4913867;29;20222;-79
2022/01/06 03:59:52;;;;;;;2.40;1.47;;;;;;;3.85;58.57;98781.91;4913127;29;20167;-78
2022/01/06 04:02:18;;;;;;;2.00;1.40;;;;;;;3.84;58.53;98777.63;4913661;29;20808;-78
2022/01/06 04:04:49;;;;;;;3.50;1.33;;;;;;;3.80;58.70;98776.38;4965787;23;20272;-78
2022/01/06 04:07:24;;;;;;;1.47;1.03;;;;;;;3.66;59.55;98766.72;4972205;29;20212;-78
2022/01/06 04:09:50;;;;;;;2.40;1.10;;;;;;;3.75;58.89;98768.19;4946606;23;20264;-78
2022/01/06 04:12:22;;;;;;;2.47;1.20;;;;;;;3.67;58.58;98768.38;4936174;29;20213;-79
2022/01/06 04:14:49;;;;;;;3.27;1.20;;;;;;;3.70;58.59;98778.56;4936454;29;20539;-79
2022/01/06 04:17:17;;;;;;;4.67;1.23;;;;;;;3.69;58.92;98774.28;4952608;29;20304;-78
2022/01/06 04:19:47;;;;;;;3.00;1.37;;;;;;;3.73;58.65;98773.72;4953740;23;20257;-79
2022/01/06 04:22:15;;;;;;;1.73;1.33;;;;;;;3.67;59.06;98771.03;4961145;23;20204;-79
2022/01/06 04:24:42;;;;;;;3.10;1.20;;;;;;;3.71;59.48;98782.84;4938505;29;20243;-79
2022/01/06 04:27:08;;;;;;;2.63;1.43;;;;;;;3.78;59.11;98791.66;4924414;29;20253;-78
2022/01/06 04:29:38;;;;;;;2.27;1.47;;;;;;;3.81;59.26;98788.63;4957060;23;20237;-78
2022/01/06 04:32:07;;;;;;;2.47;1.50;;;;;;;3.77;59.33;98793.50;4956866;23;20261;-78
2022/01/06 04:35:07;;;;;;;2.90;1.40;;;;;;;3.81;59.50;98796.56;4921253;29;20229;-78
2022/01/06 04:37:36;;;;;;;3.33;1.43;;;;;;;3.79;59.52;98788.81;4953261;29;20284;-78
2022/01/06 04:40:10;;;;;;;1.90;1.30;;;;;;;3.63;60.27;98805.03;5055002;23;20237;-78
2022/01/06 04:42:39;;;;;;;2.23;1.30;;;;;;;3.79;59.20;98812.66;4943293;23;20233;-78
2022/01/06 04:45:09;;;;;;;4.07;1.57;;;;;;;3.73;59.72;98802.84;4945177;23;20252;-78
2022/01/06 04:47:36;;;;;;;2.20;1.63;;;;;;;3.63;59.49;98791.78;4955225;29;20236;-78
2022/01/06 04:50:15;;;;;;;1.37;1.27;;;;;;;3.77;59.66;98809.41;4955248;29;20221;-79
2022/01/06 04:52:44;;;;;;;3.57;1.40;;;;;;;3.72;59.73;98803.88;4971566;29;20205;-79
2022/01/06 04:55:15;;;;;;;2.43;1.50;;;;;;;3.75;60.19;98824.66;4940723;29;20181;-79
2022/01/06 04:58:09;;;;;;;1.67;1.30;;;;;;;3.82;59.86;98811.47;4971909;29;20217;-78
2022/01/06 05:00:37;;;;;;;2.37;1.60;;;;;;;3.81;59.68;98821.25;4972458;29;20230;-79
2022/01/06 05:03:09;;;;;;;3.13;1.53;;;;;;;3.77;60.39;98825.28;4984014;23;20250;-79
2022/01/06 05:05:36;;;;;;;2.37;1.67;;;;;;;3.78;60.25;98818.16;4935998;29;20227;-78
2022/01/06 05:08:05;;;;;;;3.07;1.53;;;;;;;3.77;60.27;98822.66;4941438;23;20237;-78
2022/01/06 05:10:37;;;;;;;3.67;1.50;;;;;;;3.77;60.26;98821.81;4952210;29;20198;-78
2022/01/06 05:13:25;;;;;;;1.80;1.40;;;;;;;3.82;60.14;98833.47;4951761;29;20239;-78
2022/01/06 05:16:07;;;;;;;2.73;1.73;;;;;;;3.74;60.77;98832.78;4974677;23;20232;-78
2022/01/06 05:18:35;;;;;;;2.67;1.50;;;;;;;3.87;60.34;98830.25;4938783;23;20660;-79
2022/01/06 05:21:23;;;;;;;3.03;1.70;;;;;;;3.83;60.26;98816.53;4945448;23;20237;-79
2022/01/06 05:23:50;;;;;;;2.23;1.57;;;;;;;3.72;60.41;98834.84;4921159;29;20226;-78
2022/01/06 05:26:19;;;;;;;2.47;1.70;;;;;;;3.87;60.48;98835.53;4945825;23;21323;-79
2022/01/06 05:28:52;;;;;;;2.73;1.70;;;;;;;3.82;61.03;98838.78;4941299;23;20289;-79
2022/01/06 05:31:42;;;;;;;4.93;1.80;;;;;;;3.72;60.79;98827.72;4966857;23;20229;-79
2022/01/06 05:34:12;;;;;;;3.03;1.40;;;;;;;3.65;61.33;98839.25;4939072;29;20232;-78
2022/01/06 05:36:41;;;;;;;2.67;1.50;;;;;;;3.67;61.69;98859.25;4956732;23;20215;-79
2022/01/06 05:39:08;;;;;;;2.70;1.57;;;;;;;3.46;61.82;98836.28;4920157;29;20233;-79
2022/01/06 05:41:35;;;;;;;2.90;1.57;;;;;;;3.52;62.04;98848.78;4952452;29;20209;-80
2022/01/06 05:44:20;;;;;;;2.67;1.60;;;;;;;3.53;62.19;98839.00;4952314;29;20217;-79
2022/01/06 05:46:47;;;;;;;3.33;1.53;;;;;;;3.57;61.98;98850.84;4920438;29;20577;-79
2022/01/06 05:49:16;;;;;;;3.33;1.60;;;;;;;3.51;62.29;98854.25;4948074;23;20214;-78
2022/01/06 05:51:44;;;;;;;3.97;1.50;;;;;;;3.52;62.36;98851.41;4914972;29;20198;-78
2022/01/06 05:54:11;;;;;;;2.33;1.70;;;;;;;3.39;62.44;98853.16;4932198;29;20222;-78
2022/01/06 05:56:38;;;;;;;3.80;2.00;;;;;;;3.43;62.41;98849.94;4933511;29;20230;-79
2022/01/06 05:59:05;;;;;;;4.07;1.67;;;;;;;3.37;62.66;98871.06;4914926;29;20250;-79
2022/01/06 06:01:35;;;;;;;2.70;1.50;;;;;;;3.37;62.66;98863.94;4961883;23;20236;-79
2022/01/06 06:04:07;;;;;;;2.83;1.90;;;;;;;3.36;62.51;98867.56;4944255;23;20251;-78
2022/01/06 06:06:56;;;;;;;3.53;1.90;;;;;;;3.34;63.00;98866.16;4956511;29;20295;-79
2022/01/06 06:09:28;;;;;;;3.93;1.70;;;;;;;3.30;63.03;98886.91;4958876;23;20238;-78
2022/01/06 06:12:35;;;;;;;4.33;1.93;;;;;;;3.37;62.72;98893.06;4931498;29;20237;-79
2022/01/06 06:15:05;;;;;;;3.43;1.80;;;;;;;3.26;63.28;98901.53;4953532;23;20301;-78
2022/01/06 06:17:48;;;;;;;1.90;1.70;;;;;;;3.29;63.30;98914.38;4902375;29;20230;-78
2022/01/06 06:20:16;;;;;;;2.37;1.80;;;;;;;3.29;63.63;98917.03;4921436;23;20249;-78
2022/01/06 06:22:45;;;;;;;3.40;1.87;;;;;;;3.23;63.46;98909.00;4948583;23;20238;-79
2022/01/06 06:25:17;;;;;;;4.83;2.30;;;;;;;3.18;63.47;98925.47;4913278;29;20246;-79
2022/01/06 06:27:47;;;;;;;3.43;1.90;;;;;;;3.06;63.89;98898.69;4951946;23;20228;-79
2022/01/06 06:30:18;;;;;;;3.50;2.27;;;;;;;3.15;64.09;98917.91;4957186;29;20256;-79
2022/01/06 06:32:54;;;;;;;2.67;1.93;;;;;;;3.19;64.25;98915.69;4974822;29;20181;-78
2022/01/06 06:35:26;;;;;;;2.10;1.80;;;;;;;3.15;63.73;98904.69;4974137;29;20244;-78
2022/01/06 06:38:13;;;;;;;4.60;2.47;;;;;;;3.12;63.42;98915.66;4972666;29;20229;-78
2022/01/06 06:40:41;;;;;;;5.10;2.00;;;;;;;3.05;63.49;98920.06;4972563;29;20236;-79
2022/01/06 06:43:13;;;;;;;3.73;2.23;;;;;;;3.21;63.59;98948.09;4973526;29;20225;-79
2022/01/06 06:45:47;;;;;;;3.73;2.30;;;;;;;3.13;63.61;98924.41;4943101;29;20228;-78
2022/01/06 06:48:15;;;;;;;3.10;1.80;;;;;;;3.17;63.68;98929.16;4973926;29;20240;-78
2022/01/06 06:50:42;;;;;;;5.63;1.87;;;;;;;3.15;63.77;98923.22;4972833;29;20236;-79
2022/01/06 06:53:12;;;;;;;3.10;1.87;;;;;;;3.29;62.78;98919.69;4973774;29;20212;-79
2022/01/06 06:55:54;;;;;;;3.10;1.73;;;;;;;3.24;63.18;98926.53;4964210;23;20225;-79
2022/01/06 06:58:22;;;;;;;3.90;2.20;;;;;;;3.31;62.58;98933.53;4944542;23;20241;-78
2022/01/06 07:00:52;;;;;;;5.37;2.00;;;;;;;3.45;62.10;98931.84;4943094;23;20233;-78
2022/01/06 07:03:19;;;;;;;4.43;1.83;;;;;;;3.35;62.16;98928.69;4938520;29;20209;-78
2022/01/06 07:05:48;;;;;;;3.47;2.00;;;;;;;3.43;62.37;98949.72;4975481;23;20244;-79
2022/01/06 07:08:17;;;;;;;4.37;2.00;;;;;;;3.48;61.94;98932.28;4941206;29;20233;-79
2022/01/06 07:10:52;;;;;;;4.43;2.03;;;;;;;3.53;62.09;98952.88;4942257;29;20228;-78
2022/01/06 07:13:30;;;;;;;4.60;1.93;;;;;;;3.57;61.56;98940.06;4958074;29;20221;-78
2022/01/06 07:16:00;;;;;;;2.23;1.63;;;;;;;3.72;61.35;98943.47;4972940;29;20197;-79
2022/01/06 07:18:31;;;;;;;2.90;1.70;;;;;;;3.66;60.88;98938.91;4979682;23;20224;-79
2022/01/06 07:21:25;;;;;;;3.97;1.73;;;;;;;3.80;61.09;98951.25;4966537;23;20225;-77
2022/01/06 07:23:55;;;;;;;2.63;1.63;;;;;;;3.74;60.95;98941.41;4943060;23;20205;-79
2022/01/06 07:26:46;;;;;;;3.80;1.70;;;;;;;3.85;60.40;98956.81;4961687;29;20224;-78
2022/01/06 07:29:15;;;;;;;2.47;1.50;;;;;;;3.92;60.36;98949.69;4989478;23;20236;-79
2022/01/06 07:31:47;;;;;;;2.07;1.43;;;;;;;4.04;60.02;98965.91;4946944;23;20323;-79
2022/01/06 07:34:25;;;;;;;5.00;1.80;;;;;;;3.98;60.22;98970.16;4942116;29;20221;-78
2022/01/06 07:36:54;;;;;;;3.03;1.50;;;;;;;3.96;60.43;98970.34;4956707;29;20217;-78
2022/01/06 07:39:36;;;;;;;2.60;1.70;;;;;;;3.97;60.86;98973.78;4976015;23;20232;-78
2022/01/06 07:42:19;;;;;;;3.40;1.70;;;;;;;3.88;61.00;98975.78;4988016;23;20669;-78
2022/01/06 07:44:49;;;;;;;1.83;1.30;;;;;;;3.97;60.64;98997.66;4961532;23;20236;-78
2022/01/06 07:47:20;;;;;;;4.37;1.80;;;;;;;4.02;61.23;99008.50;4953647;23;20233;-78
2022/01/06 07:50:00;;;;;;;4.23;1.90;;;;;;;4.00;61.19;99021.16;4939554;23;20270;-78
2022/01/06 07:52:28;;;;;;;3.83;1.80;;;;;;;4.01;60.78;99024.63;4941836;23;20242;-78
2022/01/06 07:54:55;;;;;;;2.60;1.63;;;;;;;4.22;60.42;99029.84;4942554;23;20238;-78
2022/01/06 07:57:30;;;;;;;2.97;1.73;;;;;;;4.20;60.31;99024.75;4961287;23;21294;-78
2022/01/06 08:00:01;;;;;;;2.03;1.60;;;;;;;4.33;60.25;99024.03;4964049;23;20213;-78
2022/01/06 08:02:51;;;;;;;3.37;1.70;;;;;;;4.37;60.57;99027.94;4958151;23;20217;-78
2022/01/06 08:05:31;;;;;;;2.37;1.60;;;;;;;4.50;59.99;99035.97;4956327;29;20225;-79
2022/01/06 08:07:59;;;;;;;2.80;1.80;;;;;;;4.48;60.25;99032.66;4956352;29;20222;-78
2022/01/06 08:10:27;;;;;;;2.93;1.60;;;;;;;4.46;60.07;99032.06;4937673;29;20626;-78
2022/01/06 08:12:54;;;;;;;2.77;1.53;;;;;;;4.44;59.56;99042.03;4974039;23;20320;-79
2022/01/06 08:15:31;;;;;;;2.37;1.50;;;;;;;4.45;59.71;99038.38;4933014;23;20229;-78
2022/01/06 08:18:18;;;;;;;3.20;1.70;;;;;;;4.48;59.67;99048.59;5184259;23;20255;-77
2022/01/06 08:20:55;;;;;;;2.17;1.40;;;;;;;4.48;59.59;99042.50;4957304;28;20204;-78
2022/01/06 08:23:42;;;;;;;3.73;1.40;;;;;;;4.44;59.29;99053.47;5065669;23;20237;-77
2022/01/06 08:26:16;;;;;;;3.97;1.50;;;;;;;4.52;59.21;99055.16;4954990;23;20336;-77
2022/01/06 08:28:54;;;;;;;2.27;1.50;;;;;;;4.50;58.87;99064.31;4980801;23;20257;-77
2022/01/06 08:31:24;;;;;;;3.07;1.50;;;;;;;4.40;58.89;99044.28;4940371;29;20177;-77
2022/01/06 08:33:54;;;;;;;3.40;1.47;;;;;;;4.48;59.30;99053.91;4961363;29;20253;-78
2022/01/06 08:36:35;;;;;;;2.27;1.50;;;;;;;4.52;59.12;99057.81;4974500;29;20224;-78
2022/01/06 08:39:03;;;;;;;1.93;1.33;;;;;;;4.47;58.82;99070.84;4963286;23;20285;-78
2022/01/06 08:42:08;;;;;;;1.87;1.20;;;;;;;4.34;59.25;99071.56;4929359;23;20210;-77
2022/01/06 08:44:42;;;;;;;2.33;1.23;;;;;;;4.43;58.88;99064.28;4945586;23;20305;-78
2022/01/06 08:47:12;;;;;;;3.30;1.17;;;;;;;4.56;58.54;99071.50;4955716;29;20197;-83
2022/01/06 08:49:41;;;;;;;4.87;1.47;;;;;;;4.54;58.65;99071.69;4957565;23;20316;-78
2022/01/06 08:52:14;;;;;;;2.00;1.50;;;;;;;4.60;58.38;99070.09;4971415;23;20266;-78
2022/01/06 08:54:44;;;;;;;2.17;1.53;;;;;;;4.59;58.18;99071.13;4981537;23;20240;-77
2022/01/06 08:57:11;;;;;;;1.30;1.10;;;;;;;4.67;58.00;99057.69;4942749;29;20256;-78
2022/01/06 08:59:38;;;;;;;2.23;1.40;;;;;;;4.72;57.77;99068.53;4956658;23;20551;-78
2022/01/06 09:02:35;;;;;;;1.30;1.20;;;;;;;4.86;57.23;99057.78;4948526;23;20190;-78
2022/01/06 09:05:11;;;;;;;2.27;1.40;;;;;;;4.73;57.32;99062.22;4982317;23;20243;-78
2022/01/06 09:07:45;;;;;;;2.30;1.20;;;;;;;4.81;56.97;99062.88;4960218;29;20229;-79
2022/01/06 09:10:12;;;;;;;1.47;1.00;;;;;;;4.77;56.73;99060.81;4957369;29;20235;-79
2022/01/06 09:13:23;;;;;;;2.60;1.33;;;;;;;5.02;56.41;99077.91;4980993;23;20245;-78
2022/01/06 09:16:15;;;;;;;1.60;1.20;;;;;;;5.16;56.01;99100.84;4949321;29;20193;-78
2022/01/06 09:18:56;;;;;;;1.87;1.27;;;;;;;5.28;55.89;99096.59;4962099;23;20228;-79
2022/01/06 09:21:26;;;;;;;2.93;1.50;;;;;;;5.51;55.29;99096.25;4925749;29;20240;-78
2022/01/06 09:24:30;;;;;;;2.13;1.20;;;;;;;5.80;54.59;99110.22;4943215;29;20201;-78
2022/01/06 09:27:13;;;;;;;2.30;1.17;;;;;;;6.05;53.94;99090.88;4974424;29;20240;-78
2022/01/06 09:29:42;;;;;;;2.87;1.40;;;;;;;6.05;54.60;99095.38;4949557;23;20235;-79
2022/01/06 09:32:09;;;;;;;2.13;1.40;;;;;;;5.96;53.97;99070.00;4955894;23;20222;-78
2022/01/06 09:34:37;;;;;;;2.07;1.20;;;;;;;5.90;53.75;99090.25;4941081;29;20252;-77
2022/01/06 09:37:07;;;;;;;2.90;1.20;;;;;;;5.77;54.97;99084.88;4956802;29;20196;-77
2022/01/06 09:39:42;;;;;;;1.83;1.40;;;;;;;5.55;55.57;99091.38;4979797;23;20227;-77
2022/01/06 09:42:12;;;;;;;2.23;1.30;;;;;;;5.50;55.72;99096.47;4953016;23;20226;-78
2022/01/06 09:44:47;;;;;;;2.80;1.20;;;;;;;5.40;56.41;99096.03;4924061;29;20252;-78
2022/01/06 09:47:16;;;;;;;2.27;1.50;;;;;;;5.44;56.26;99094.59;4936053;29;20236;-78
2022/01/06 09:50:26;;;;;;;2.23;1.40;;;;;;;5.42;57.55;99093.97;5057143;23;20224;-78
2022/01/06 09:52:59;;;;;;;1.80;1.20;;;;;;;5.54;56.88;99100.38;4956584;29;20177;-78
2022/01/06 09:55:34;;;;;;;2.43;1.60;;;;;;;5.56;57.18;99093.81;4978971;23;20224;-79
2022/01/06 09:58:01;;;;;;;1.77;1.30;;;;;;;5.52;57.17;99089.94;4987198;23;20200;-79
2022/01/06 10:00:57;;;;;;;2.13;1.50;;;;;;;5.54;57.25;99095.88;4979476;23;20248;-78
2022/01/06 10:03:34;;;;;;;1.70;1.20;;;;;;;5.73;56.55;99095.09;4986590;23;20317;-78
2022/01/06 10:06:34;;;;;;;2.57;1.60;;;;;;;5.74;56.84;99110.00;4995331;28;20228;-78
2022/01/06 10:09:25;;;;;;;1.53;1.13;;;;;;;5.77;56.40;99098.19;5003845;23;20258;-78
2022/01/06 10:12:11;;;;;;;1.70;1.13;;;;;;;5.87;56.29;99108.44;4983203;23;20236;-79
2022/01/06 10:15:00;;;;;;;2.10;1.07;;;;;;;5.94;55.39;99114.59;4913874;29;20207;-78
2022/01/06 10:17:36;;;;;;;2.27;1.70;;;;;;;5.80;56.07;99113.72;4884346;29;20208;-78
2022/01/06 10:20:23;;;;;;;1.40;1.10;;;;;;;5.70;56.22;99116.75;4901665;29;20283;-78
2022/01/06 10:23:19;;;;;;;1.37;1.00;;;;;;;5.81;55.97;99111.88;4941351;23;21010;-78
2022/01/06 10:25:49;;;;;;;2.37;1.27;;;;;;;5.83;56.10;99117.81;4963121;23;20244;-78
2022/01/06 10:28:24;;;;;;;1.37;1.20;;;;;;;5.83;55.47;99113.31;4955588;29;20212;-80
2022/01/06 10:31:00;;;;;;;2.43;1.00;;;;;;;5.85;53.89;99102.47;4948832;23;20239;-79
2022/01/06 10:33:54;;;;;;;1.10;1.00;;;;;;;5.87;53.43;99100.47;4926005;29;20230;-79
2022/01/06 10:36:36;;;;;;;2.03;1.10;;;;;;;5.94;53.52;99115.41;4974797;23;20244;-79
2022/01/06 10:39:18;;;;;;;1.20;1.10;;;;;;;5.89;53.17;99101.06;4980388;23;20236;-78
2022/01/06 10:41:45;;;;;;;1.97;1.10;;;;;;;5.90;53.36;99108.03;4977619;23;20257;-80
2022/01/06 10:44:13;;;;;;;1.47;1.10;;;;;;;6.09;52.91;99108.06;4950551;23;20822;-78
2022/01/06 10:47:08;;;;;;;1.47;0.70;;;;;;;6.17;52.67;99107.03;4959776;23;20229;-78
2022/01/06 10:49:36;;;;;;;1.57;1.00;;;;;;;6.23;52.71;99100.91;4957854;29;20233;-78
2022/01/06 10:52:04;;;;;;;1.67;1.10;;;;;;;6.15;52.09;99083.31;4951156;29;20320;-79
2022/01/06 10:54:38;;;;;;;2.07;1.20;;;;;;;6.18;52.44;99106.84;4947456;23;20237;-78
2022/01/06 10:57:18;;;;;;;1.10;0.90;;;;;;;6.19;52.35;99097.03;4957924;23;20312;-78
2022/01/06 11:00:00;;;;;;;1.67;1.10;;;;;;;6.18;52.58;99104.19;4938992;29;20237;-79
2022/01/06 11:02:30;;;;;;;2.20;1.03;;;;;;;6.33;51.99;99127.94;4937683;29;20547;-78
2022/01/06 11:04:57;;;;;;;2.13;1.00;;;;;;;6.33;51.52;99109.31;4969697;23;20200;-78
2022/01/06 11:07:29;;;;;;;1.20;1.00;;;;;;;6.28;51.57;99098.47;4959636;29;20597;-79
2022/01/06 11:09:57;;;;;;;1.63;0.90;;;;;;;6.44;51.22;99114.00;4959852;29;20237;-78
2022/01/06 11:12:47;;;;;;;1.60;0.90;;;;;;;6.56;50.52;99114.22;4975507;29;20208;-78
2022/01/06 11:15:20;;;;;;;3.80;1.30;;;;;;;6.54;50.61;99117.06;4982434;23;20263;-78
2022/01/06 11:17:56;;;;;;;2.70;0.90;;;;;;;6.62;50.50;99124.03;4948025;23;20241;-78
2022/01/06 11:20:31;;;;;;;1.80;1.10;;;;;;;6.55;50.61;99120.56;4967187;23;20208;-78
2022/01/06 11:23:03;;;;;;;1.80;1.03;;;;;;;6.67;50.09;99129.56;4957392;29;20256;-81
2022/01/06 11:25:40;;;;;;;2.70;0.90;;;;;;;6.76;50.61;99132.81;4957135;29;20279;-78
2022/01/06 11:28:29;;;;;;;1.97;1.20;;;;;;;6.89;49.66;99138.94;4982167;23;20178;-81
2022/01/06 11:31:23;;;;;;;1.67;0.90;;;;;;;6.94;49.54;99141.81;4949743;23;20697;-78
2022/01/06 11:33:52;;;;;;;1.43;0.90;;;;;;;6.91;49.14;99142.19;4929275;29;20216;-78
2022/01/06 11:36:35;;;;;;;1.67;1.00;;;;;;;7.05;49.18;99130.50;4954521;29;20257;-78
2022/01/06 11:39:28;;;;;;;2.30;1.10;;;;;;;7.20;49.11;99140.09;4962925;23;20204;-78
2022/01/06 11:41:58;;;;;;;1.90;1.17;;;;;;;7.12;48.31;99138.47;4955293;29;20273;-78
2022/01/06 11:44:48;;;;;;;2.23;1.10;;;;;;;7.17;48.42;99152.00;4937944;29;20293;-78
2022/01/06 11:47:34;;;;;;;3.00;1.27;;;;;;;6.97;48.46;99141.38;4964779;23;20257;-79
2022/01/06 11:50:14;;;;;;;3.87;1.20;;;;;;;7.20;48.38;99137.44;4955878;23;20248;-79
2022/01/06 11:53:02;;;;;;;1.20;0.90;;;;;;;7.17;48.81;99146.66;4956538;29;20192;-78
2022/01/06 11:55:49;;;;;;;2.07;1.17;;;;;;;7.13;48.11;99126.81;5042732;23;20256;-78
2022/01/06 11:58:36;;;;;;;2.63;1.00;;;;;;;7.31;47.56;99140.28;4925377;29;20221;-78
2022/01/06 12:01:13;;;;;;;3.53;1.20;;;;;;;7.40;48.41;99149.66;4971505;23;20200;-78
2022/01/06 12:04:43;;;;;;;1.57;1.00;;;;;;;7.64;48.12;99152.66;5050698;23;20249;-79
2022/01/06 12:07:11;;;;;;;2.67;1.10;;;;;;;7.55;47.06;99137.94;4951684;23;20225;-78
2022/01/06 12:09:50;;;;;;;2.70;0.97;;;;;;;7.61;48.17;99167.19;4956141;29;20218;-79
2022/01/06 12:12:18;;;;;;;1.50;1.10;;;;;;;7.58;47.76;99122.31;4956085;29;20233;-78
2022/01/06 12:14:45;;;;;;;1.67;1.00;;;;;;;7.71;46.79;99135.56;4983080;23;20224;-78
2022/01/06 12:17:13;;;;;;;4.83;1.50;;;;;;;7.80;46.92;99147.63;4943425;29;20209;-78
2022/01/06 12:20:04;;;;;;;1.80;1.27;;;;;;;7.76;47.14;99145.59;4981230;23;20212;-78
2022/01/06 12:22:38;;;;;;;2.27;1.07;;;;;;;7.83;46.31;99155.22;4946348;23;20221;-78
2022/01/06 12:25:15;;;;;;;3.53;1.00;;;;;;;7.69;46.50;99160.84;4954966;23;20253;-78